Holland, Minnesota
Current Conditions -  °F | °C
As of 1:14 PM on Sunday 23 Nov 2014 (Local Time) from KPQN Reporting Station
Clear Clear  
Wind Chill: 31°   Ceiling: Unl
Heat Index: 39°   Visibility: 10mi
Dew Point: 36°   Wind: 15mph
Humidity: 87%   Direction: 320°NW
Pressure: 29.48"   Gusts: 20mph
Location:  44.09°N, 96.19°W
Report Text: KPQN 231914Z AUTO 32013G17KT 10SM CLR 04/02 A2948 RMK AO2
Loading
Personal Weather Stations






























Interactive Weather Map New forecast layout! Learn more

10-Day Weather Forecast

Advertisements
Track Severe Weather on mobile